sensor_id;sensor_type;location;lat;lon;timestamp;temperature;humidity
75262;DHT22;63859;51.064;4.580;2023-08-17T00:01:47;20.00;99.90
75262;DHT22;63859;51.064;4.580;2023-08-17T00:04:13;20.00;99.90
75262;DHT22;63859;51.064;4.580;2023-08-17T00:06:38;19.90;99.90
75262;DHT22;63859;51.064;4.580;2023-08-17T00:09:04;19.90;99.90
75262;DHT22;63859;51.064;4.580;2023-08-17T00:11:30;19.90;99.90
75262;DHT22;63859;51.064;4.580;2023-08-17T00:13:56;19.90;99.90
75262;DHT22;63859;51.064;4.580;2023-08-17T00:16:21;19.90;99.90
75262;DHT22;63859;51.064;4.580;2023-08-17T00:18:49;19.80;99.90
75262;DHT22;63859;51.064;4.580;2023-08-17T00:21:14;19.80;99.90
75262;DHT22;63859;51.064;4.580;2023-08-17T00:23:40;19.80;99.90
75262;DHT22;63859;51.064;4.580;2023-08-17T00:26:06;19.80;99.90
75262;DHT22;63859;51.064;4.580;2023-08-17T00:28:32;19.70;99.90
75262;DHT22;63859;51.064;4.580;2023-08-17T00:30:59;19.70;99.90
75262;DHT22;63859;51.064;4.580;2023-08-17T00:33:24;19.70;99.90
75262;DHT22;63859;51.064;4.580;2023-08-17T00:35:50;19.70;99.90
75262;DHT22;63859;51.064;4.580;2023-08-17T00:38:16;19.70;99.90
75262;DHT22;63859;51.064;4.580;2023-08-17T00:40:42;19.60;99.90
75262;DHT22;63859;51.064;4.580;2023-08-17T00:43:07;19.60;99.90
75262;DHT22;63859;51.064;4.580;2023-08-17T00:45:34;19.60;99.90
75262;DHT22;63859;51.064;4.580;2023-08-17T00:48:00;19.50;99.90
75262;DHT22;63859;51.064;4.580;2023-08-17T00:50:26;19.50;99.90
75262;DHT22;63859;51.064;4.580;2023-08-17T00:52:53;19.50;99.90
75262;DHT22;63859;51.064;4.580;2023-08-17T00:55:19;19.50;99.90
75262;DHT22;63859;51.064;4.580;2023-08-17T00:57:45;19.40;99.90
75262;DHT22;63859;51.064;4.580;2023-08-17T01:00:12;19.40;99.90
75262;DHT22;63859;51.064;4.580;2023-08-17T01:02:40;19.40;99.90
75262;DHT22;63859;51.064;4.580;2023-08-17T01:05:06;19.30;99.90
75262;DHT22;63859;51.064;4.580;2023-08-17T01:07:32;19.30;99.90
75262;DHT22;63859;51.064;4.580;2023-08-17T01:09:59;19.30;99.90
75262;DHT22;63859;51.064;4.580;2023-08-17T01:12:35;19.20;99.90
75262;DHT22;63859;51.064;4.580;2023-08-17T01:15:14;19.20;99.90
75262;DHT22;63859;51.064;4.580;2023-08-17T01:20:16;19.10;99.90
75262;DHT22;63859;51.064;4.580;2023-08-17T01:22:45;19.10;99.90
75262;DHT22;63859;51.064;4.580;2023-08-17T01:25:11;19.10;99.90
75262;DHT22;63859;51.064;4.580;2023-08-17T01:27:40;19.10;99.90
75262;DHT22;63859;51.064;4.580;2023-08-17T01:30:07;19.10;99.90
75262;DHT22;63859;51.064;4.580;2023-08-17T01:32:42;19.00;99.90
75262;DHT22;63859;51.064;4.580;2023-08-17T01:37:41;19.00;99.90
75262;DHT22;63859;51.064;4.580;2023-08-17T01:40:08;19.00;99.90
75262;DHT22;63859;51.064;4.580;2023-08-17T01:42:35;18.90;99.90
75262;DHT22;63859;51.064;4.580;2023-08-17T01:45:02;18.90;99.90
75262;DHT22;63859;51.064;4.580;2023-08-17T01:47:28;18.90;99.90
75262;DHT22;63859;51.064;4.580;2023-08-17T01:49:55;18.80;99.90
75262;DHT22;63859;51.064;4.580;2023-08-17T01:52:26;18.80;99.90
75262;DHT22;63859;51.064;4.580;2023-08-17T01:54:53;18.80;99.90
75262;DHT22;63859;51.064;4.580;2023-08-17T01:57:19;18.80;99.90
75262;DHT22;63859;51.064;4.580;2023-08-17T01:59:45;18.80;99.90
75262;DHT22;63859;51.064;4.580;2023-08-17T02:02:11;18.80;99.90
75262;DHT22;63859;51.064;4.580;2023-08-17T02:04:40;18.80;99.90
75262;DHT22;63859;51.064;4.580;2023-08-17T02:07:05;18.70;99.90
75262;DHT22;63859;51.064;4.580;2023-08-17T02:09:31;18.70;99.90
75262;DHT22;63859;51.064;4.580;2023-08-17T02:11:57;18.70;99.90
75262;DHT22;63859;51.064;4.580;2023-08-17T02:14:22;18.70;99.90
75262;DHT22;63859;51.064;4.580;2023-08-17T02:16:48;18.70;99.90
75262;DHT22;63859;51.064;4.580;2023-08-17T02:19:14;18.70;99.90
75262;DHT22;63859;51.064;4.580;2023-08-17T02:21:40;18.70;99.90
75262;DHT22;63859;51.064;4.580;2023-08-17T02:24:06;18.70;99.90
75262;DHT22;63859;51.064;4.580;2023-08-17T02:26:31;18.60;99.90
75262;DHT22;63859;51.064;4.580;2023-08-17T02:28:57;18.60;99.90
75262;DHT22;63859;51.064;4.580;2023-08-17T02:31:23;18.60;99.90
75262;DHT22;63859;51.064;4.580;2023-08-17T02:33:48;18.60;99.90
75262;DHT22;63859;51.064;4.580;2023-08-17T02:36:14;18.60;99.90
75262;DHT22;63859;51.064;4.580;2023-08-17T02:38:40;18.60;99.90
75262;DHT22;63859;51.064;4.580;2023-08-17T02:41:05;18.60;99.90
75262;DHT22;63859;51.064;4.580;2023-08-17T02:43:31;18.50;99.90
75262;DHT22;63859;51.064;4.580;2023-08-17T02:45:57;18.50;99.90
75262;DHT22;63859;51.064;4.580;2023-08-17T02:48:24;18.50;99.90
75262;DHT22;63859;51.064;4.580;2023-08-17T02:50:50;18.40;99.90
75262;DHT22;63859;51.064;4.580;2023-08-17T02:53:16;18.40;99.90
75262;DHT22;63859;51.064;4.580;2023-08-17T02:55:41;18.40;99.90
75262;DHT22;63859;51.064;4.580;2023-08-17T02:58:07;18.40;99.90
75262;DHT22;63859;51.064;4.580;2023-08-17T03:00:33;18.30;99.90
75262;DHT22;63859;51.064;4.580;2023-08-17T03:02:59;18.30;99.90
75262;DHT22;63859;51.064;4.580;2023-08-17T03:05:24;18.20;99.90
75262;DHT22;63859;51.064;4.580;2023-08-17T03:07:50;18.20;99.90
75262;DHT22;63859;51.064;4.580;2023-08-17T03:10:16;18.20;99.90
75262;DHT22;63859;51.064;4.580;2023-08-17T03:12:41;18.20;99.90
75262;DHT22;63859;51.064;4.580;2023-08-17T03:15:08;18.10;99.90
75262;DHT22;63859;51.064;4.580;2023-08-17T03:17:34;18.10;99.90
75262;DHT22;63859;51.064;4.580;2023-08-17T03:19:59;18.10;99.90
75262;DHT22;63859;51.064;4.580;2023-08-17T03:22:25;18.10;99.90
75262;DHT22;63859;51.064;4.580;2023-08-17T03:24:54;18.10;99.90
75262;DHT22;63859;51.064;4.580;2023-08-17T03:27:20;18.10;99.90
75262;DHT22;63859;51.064;4.580;2023-08-17T03:29:45;18.10;99.90
75262;DHT22;63859;51.064;4.580;2023-08-17T03:32:11;18.10;99.90
75262;DHT22;63859;51.064;4.580;2023-08-17T03:34:37;18.20;99.90
75262;DHT22;63859;51.064;4.580;2023-08-17T03:37:04;18.20;99.90
75262;DHT22;63859;51.064;4.580;2023-08-17T03:39:30;18.10;99.90
75262;DHT22;63859;51.064;4.580;2023-08-17T03:41:56;18.20;99.90
75262;DHT22;63859;51.064;4.580;2023-08-17T03:44:22;18.20;99.90
75262;DHT22;63859;51.064;4.580;2023-08-17T03:46:47;18.20;99.90
75262;DHT22;63859;51.064;4.580;2023-08-17T03:49:13;18.30;99.90
75262;DHT22;63859;51.064;4.580;2023-08-17T03:51:39;18.30;99.90
75262;DHT22;63859;51.064;4.580;2023-08-17T03:54:05;18.30;99.90
75262;DHT22;63859;51.064;4.580;2023-08-17T03:56:31;18.30;99.90
75262;DHT22;63859;51.064;4.580;2023-08-17T03:58:57;18.30;99.90
75262;DHT22;63859;51.064;4.580;2023-08-17T04:01:22;18.30;99.90
75262;DHT22;63859;51.064;4.580;2023-08-17T04:03:48;18.30;99.90
75262;DHT22;63859;51.064;4.580;2023-08-17T04:06:14;18.30;99.90
75262;DHT22;63859;51.064;4.580;2023-08-17T04:08:39;18.30;99.90
75262;DHT22;63859;51.064;4.580;2023-08-17T04:11:05;18.30;99.90
75262;DHT22;63859;51.064;4.580;2023-08-17T04:13:31;18.30;99.90
75262;DHT22;63859;51.064;4.580;2023-08-17T04:15:57;18.30;99.90
75262;DHT22;63859;51.064;4.580;2023-08-17T04:18:23;18.30;99.90
75262;DHT22;63859;51.064;4.580;2023-08-17T04:20:49;18.30;99.90
75262;DHT22;63859;51.064;4.580;2023-08-17T04:23:15;18.30;99.90
75262;DHT22;63859;51.064;4.580;2023-08-17T04:25:41;18.30;99.90
75262;DHT22;63859;51.064;4.580;2023-08-17T04:28:07;18.30;99.90
75262;DHT22;63859;51.064;4.580;2023-08-17T04:30:33;18.30;99.90
75262;DHT22;63859;51.064;4.580;2023-08-17T04:32:58;18.20;99.90
75262;DHT22;63859;51.064;4.580;2023-08-17T04:35:24;18.20;99.90
75262;DHT22;63859;51.064;4.580;2023-08-17T04:37:50;18.20;99.90
75262;DHT22;63859;51.064;4.580;2023-08-17T04:40:15;18.20;99.90
75262;DHT22;63859;51.064;4.580;2023-08-17T04:42:41;18.20;99.90
75262;DHT22;63859;51.064;4.580;2023-08-17T04:45:07;18.20;99.90
75262;DHT22;63859;51.064;4.580;2023-08-17T04:47:33;18.30;99.90
75262;DHT22;63859;51.064;4.580;2023-08-17T04:49:59;18.20;99.90
75262;DHT22;63859;51.064;4.580;2023-08-17T04:52:25;18.30;99.90
75262;DHT22;63859;51.064;4.580;2023-08-17T04:54:51;18.30;99.90
75262;DHT22;63859;51.064;4.580;2023-08-17T04:57:16;18.30;99.90
75262;DHT22;63859;51.064;4.580;2023-08-17T04:59:43;18.30;99.90
75262;DHT22;63859;51.064;4.580;2023-08-17T05:02:08;18.30;99.90
75262;DHT22;63859;51.064;4.580;2023-08-17T05:04:35;18.30;99.90
75262;DHT22;63859;51.064;4.580;2023-08-17T05:07:00;18.30;99.90
75262;DHT22;63859;51.064;4.580;2023-08-17T05:09:27;18.30;99.90
75262;DHT22;63859;51.064;4.580;2023-08-17T05:11:53;18.30;99.90
75262;DHT22;63859;51.064;4.580;2023-08-17T05:14:18;18.30;99.90
75262;DHT22;63859;51.064;4.580;2023-08-17T05:16:44;18.30;99.90
75262;DHT22;63859;51.064;4.580;2023-08-17T05:19:09;18.30;99.90
75262;DHT22;63859;51.064;4.580;2023-08-17T05:21:35;18.30;99.90
75262;DHT22;63859;51.064;4.580;2023-08-17T05:24:01;18.30;99.90
75262;DHT22;63859;51.064;4.580;2023-08-17T05:26:27;18.40;99.90
75262;DHT22;63859;51.064;4.580;2023-08-17T05:28:53;18.40;99.90
75262;DHT22;63859;51.064;4.580;2023-08-17T05:31:18;18.30;99.90
75262;DHT22;63859;51.064;4.580;2023-08-17T05:33:44;18.40;99.90
75262;DHT22;63859;51.064;4.580;2023-08-17T05:36:10;18.40;99.90
75262;DHT22;63859;51.064;4.580;2023-08-17T05:38:36;18.40;99.90
75262;DHT22;63859;51.064;4.580;2023-08-17T05:41:02;18.40;99.90
75262;DHT22;63859;51.064;4.580;2023-08-17T05:43:28;18.40;99.90
75262;DHT22;63859;51.064;4.580;2023-08-17T05:45:53;18.40;99.90
75262;DHT22;63859;51.064;4.580;2023-08-17T05:48:19;18.30;99.90
75262;DHT22;63859;51.064;4.580;2023-08-17T05:50:46;18.40;99.90
75262;DHT22;63859;51.064;4.580;2023-08-17T05:53:12;18.50;99.90
75262;DHT22;63859;51.064;4.580;2023-08-17T05:55:37;18.50;99.90
75262;DHT22;63859;51.064;4.580;2023-08-17T05:58:03;18.50;99.90
75262;DHT22;63859;51.064;4.580;2023-08-17T06:00:32;18.40;99.90
75262;DHT22;63859;51.064;4.580;2023-08-17T06:02:58;18.50;99.90
75262;DHT22;63859;51.064;4.580;2023-08-17T06:05:27;18.40;99.90
75262;DHT22;63859;51.064;4.580;2023-08-17T06:07:54;18.40;99.90
75262;DHT22;63859;51.064;4.580;2023-08-17T06:10:20;18.40;99.90
75262;DHT22;63859;51.064;4.580;2023-08-17T06:12:53;18.40;99.90
75262;DHT22;63859;51.064;4.580;2023-08-17T06:15:19;18.40;99.90
75262;DHT22;63859;51.064;4.580;2023-08-17T06:17:45;18.40;99.90
75262;DHT22;63859;51.064;4.580;2023-08-17T06:20:11;18.40;99.90
75262;DHT22;63859;51.064;4.580;2023-08-17T06:22:37;18.40;99.90
75262;DHT22;63859;51.064;4.580;2023-08-17T06:25:04;18.40;99.90
75262;DHT22;63859;51.064;4.580;2023-08-17T06:27:30;18.40;99.90
75262;DHT22;63859;51.064;4.580;2023-08-17T06:29:56;18.40;99.90
75262;DHT22;63859;51.064;4.580;2023-08-17T06:32:22;18.40;99.90
75262;DHT22;63859;51.064;4.580;2023-08-17T06:34:47;18.40;99.90
75262;DHT22;63859;51.064;4.580;2023-08-17T06:37:13;18.50;99.90
75262;DHT22;63859;51.064;4.580;2023-08-17T06:39:39;18.50;99.90
75262;DHT22;63859;51.064;4.580;2023-08-17T06:42:04;18.50;99.90
75262;DHT22;63859;51.064;4.580;2023-08-17T06:44:30;18.50;99.90
75262;DHT22;63859;51.064;4.580;2023-08-17T06:46:57;18.50;99.90
75262;DHT22;63859;51.064;4.580;2023-08-17T06:49:24;18.50;99.90
75262;DHT22;63859;51.064;4.580;2023-08-17T06:51:50;18.50;99.90
75262;DHT22;63859;51.064;4.580;2023-08-17T06:54:15;18.50;99.90
75262;DHT22;63859;51.064;4.580;2023-08-17T06:56:41;18.50;99.90
75262;DHT22;63859;51.064;4.580;2023-08-17T06:59:07;18.50;99.90
75262;DHT22;63859;51.064;4.580;2023-08-17T07:01:32;18.50;99.90
75262;DHT22;63859;51.064;4.580;2023-08-17T07:03:58;18.50;99.90
75262;DHT22;63859;51.064;4.580;2023-08-17T07:06:24;18.60;99.90
75262;DHT22;63859;51.064;4.580;2023-08-17T07:08:50;18.60;99.90
75262;DHT22;63859;51.064;4.580;2023-08-17T07:11:16;18.60;99.90
75262;DHT22;63859;51.064;4.580;2023-08-17T07:13:41;18.70;99.90
75262;DHT22;63859;51.064;4.580;2023-08-17T07:16:07;18.70;99.90
75262;DHT22;63859;51.064;4.580;2023-08-17T07:18:33;18.70;99.90
75262;DHT22;63859;51.064;4.580;2023-08-17T07:20:58;18.70;99.90
75262;DHT22;63859;51.064;4.580;2023-08-17T07:23:24;18.80;99.90
75262;DHT22;63859;51.064;4.580;2023-08-17T07:25:50;18.80;99.90
75262;DHT22;63859;51.064;4.580;2023-08-17T07:28:15;18.80;99.90
75262;DHT22;63859;51.064;4.580;2023-08-17T07:30:41;18.80;99.90
75262;DHT22;63859;51.064;4.580;2023-08-17T07:33:07;18.90;99.90
75262;DHT22;63859;51.064;4.580;2023-08-17T07:35:33;18.90;99.90
75262;DHT22;63859;51.064;4.580;2023-08-17T07:37:58;18.90;99.90
75262;DHT22;63859;51.064;4.580;2023-08-17T07:40:24;19.00;99.90
75262;DHT22;63859;51.064;4.580;2023-08-17T07:42:49;19.10;99.90
75262;DHT22;63859;51.064;4.580;2023-08-17T07:45:15;19.10;99.90
75262;DHT22;63859;51.064;4.580;2023-08-17T07:47:41;19.10;99.90
75262;DHT22;63859;51.064;4.580;2023-08-17T07:50:07;19.20;99.90
75262;DHT22;63859;51.064;4.580;2023-08-17T07:52:33;19.20;99.90
75262;DHT22;63859;51.064;4.580;2023-08-17T07:54:59;19.20;99.90
75262;DHT22;63859;51.064;4.580;2023-08-17T07:57:25;19.20;99.90
75262;DHT22;63859;51.064;4.580;2023-08-17T07:59:50;19.30;99.90
75262;DHT22;63859;51.064;4.580;2023-08-17T08:02:17;19.30;99.90
75262;DHT22;63859;51.064;4.580;2023-08-17T08:04:43;19.40;99.90
75262;DHT22;63859;51.064;4.580;2023-08-17T08:07:10;19.40;99.90
75262;DHT22;63859;51.064;4.580;2023-08-17T08:09:35;19.50;99.90
75262;DHT22;63859;51.064;4.580;2023-08-17T08:12:02;19.50;99.90
75262;DHT22;63859;51.064;4.580;2023-08-17T08:14:28;19.60;99.90
75262;DHT22;63859;51.064;4.580;2023-08-17T08:16:53;19.60;99.90
75262;DHT22;63859;51.064;4.580;2023-08-17T08:19:19;19.60;99.90
75262;DHT22;63859;51.064;4.580;2023-08-17T08:21:44;19.70;99.90
75262;DHT22;63859;51.064;4.580;2023-08-17T08:24:10;19.70;99.90
75262;DHT22;63859;51.064;4.580;2023-08-17T08:26:36;19.70;99.90
75262;DHT22;63859;51.064;4.580;2023-08-17T08:29:01;19.70;99.90
75262;DHT22;63859;51.064;4.580;2023-08-17T08:31:27;19.70;99.90
75262;DHT22;63859;51.064;4.580;2023-08-17T08:33:53;19.70;99.90
75262;DHT22;63859;51.064;4.580;2023-08-17T08:36:19;19.80;99.90
75262;DHT22;63859;51.064;4.580;2023-08-17T08:38:45;19.80;99.90
75262;DHT22;63859;51.064;4.580;2023-08-17T08:41:11;19.80;99.90
75262;DHT22;63859;51.064;4.580;2023-08-17T08:43:38;19.80;99.90
75262;DHT22;63859;51.064;4.580;2023-08-17T08:46:04;19.90;99.90
75262;DHT22;63859;51.064;4.580;2023-08-17T08:48:31;19.90;99.90
75262;DHT22;63859;51.064;4.580;2023-08-17T08:51:00;19.90;99.90
75262;DHT22;63859;51.064;4.580;2023-08-17T08:53:39;20.00;99.90
75262;DHT22;63859;51.064;4.580;2023-08-17T08:56:11;20.10;99.90
75262;DHT22;63859;51.064;4.580;2023-08-17T08:58:40;20.00;99.90
75262;DHT22;63859;51.064;4.580;2023-08-17T09:01:07;20.10;99.90
75262;DHT22;63859;51.064;4.580;2023-08-17T09:03:33;20.20;99.90
75262;DHT22;63859;51.064;4.580;2023-08-17T09:05:59;20.30;99.90
75262;DHT22;63859;51.064;4.580;2023-08-17T09:08:28;20.40;99.90
75262;DHT22;63859;51.064;4.580;2023-08-17T09:10:54;20.40;99.90
75262;DHT22;63859;51.064;4.580;2023-08-17T09:13:20;20.50;99.90
75262;DHT22;63859;51.064;4.580;2023-08-17T09:15:46;20.60;99.90
75262;DHT22;63859;51.064;4.580;2023-08-17T09:18:12;20.60;99.90
75262;DHT22;63859;51.064;4.580;2023-08-17T09:20:45;20.60;99.90
75262;DHT22;63859;51.064;4.580;2023-08-17T09:23:19;20.60;99.90
75262;DHT22;63859;51.064;4.580;2023-08-17T09:25:46;20.60;99.90
75262;DHT22;63859;51.064;4.580;2023-08-17T09:28:17;20.60;99.90
75262;DHT22;63859;51.064;4.580;2023-08-17T09:31:02;20.60;99.90
75262;DHT22;63859;51.064;4.580;2023-08-17T09:33:31;20.70;99.90
75262;DHT22;63859;51.064;4.580;2023-08-17T09:35:58;20.80;99.90
75262;DHT22;63859;51.064;4.580;2023-08-17T09:38:24;20.80;99.90
75262;DHT22;63859;51.064;4.580;2023-08-17T09:40:50;20.90;99.90
75262;DHT22;63859;51.064;4.580;2023-08-17T09:43:18;20.80;99.90
75262;DHT22;63859;51.064;4.580;2023-08-17T09:45:44;20.90;99.90
75262;DHT22;63859;51.064;4.580;2023-08-17T09:48:14;20.90;99.90
75262;DHT22;63859;51.064;4.580;2023-08-17T09:50:42;21.00;99.90
75262;DHT22;63859;51.064;4.580;2023-08-17T09:53:12;21.00;99.90
75262;DHT22;63859;51.064;4.580;2023-08-17T09:55:40;21.00;99.90
75262;DHT22;63859;51.064;4.580;2023-08-17T09:58:06;21.00;99.90
75262;DHT22;63859;51.064;4.580;2023-08-17T10:00:34;21.00;99.90
75262;DHT22;63859;51.064;4.580;2023-08-17T10:03:02;21.00;99.90
75262;DHT22;63859;51.064;4.580;2023-08-17T10:05:32;21.10;99.90
75262;DHT22;63859;51.064;4.580;2023-08-17T10:08:00;21.20;99.90
75262;DHT22;63859;51.064;4.580;2023-08-17T10:13:11;21.40;99.90
75262;DHT22;63859;51.064;4.580;2023-08-17T10:15:41;21.50;99.90
75262;DHT22;63859;51.064;4.580;2023-08-17T10:20:42;21.50;99.90
75262;DHT22;63859;51.064;4.580;2023-08-17T10:23:15;21.40;99.90
75262;DHT22;63859;51.064;4.580;2023-08-17T10:25:42;21.50;99.90
75262;DHT22;63859;51.064;4.580;2023-08-17T10:28:12;21.50;99.90
75262;DHT22;63859;51.064;4.580;2023-08-17T10:30:38;21.50;99.90
75262;DHT22;63859;51.064;4.580;2023-08-17T10:33:05;21.50;99.90
75262;DHT22;63859;51.064;4.580;2023-08-17T10:35:35;21.60;99.90
75262;DHT22;63859;51.064;4.580;2023-08-17T10:38:03;21.50;99.90
75262;DHT22;63859;51.064;4.580;2023-08-17T10:40:35;21.40;99.90
75262;DHT22;63859;51.064;4.580;2023-08-17T10:43:01;21.40;99.90
75262;DHT22;63859;51.064;4.580;2023-08-17T10:45:31;21.50;99.90
75262;DHT22;63859;51.064;4.580;2023-08-17T10:50:36;21.40;99.90
75262;DHT22;63859;51.064;4.580;2023-08-17T10:53:12;21.30;99.90
75262;DHT22;63859;51.064;4.580;2023-08-17T10:55:44;21.30;99.90
75262;DHT22;63859;51.064;4.580;2023-08-17T10:58:10;21.30;99.90
75262;DHT22;63859;51.064;4.580;2023-08-17T11:00:40;21.40;99.90
75262;DHT22;63859;51.064;4.580;2023-08-17T11:03:09;21.30;99.90
75262;DHT22;63859;51.064;4.580;2023-08-17T11:05:40;21.30;99.90
75262;DHT22;63859;51.064;4.580;2023-08-17T11:08:07;21.30;99.90
75262;DHT22;63859;51.064;4.580;2023-08-17T11:10:35;21.30;99.90
75262;DHT22;63859;51.064;4.580;2023-08-17T11:13:01;21.30;99.90
75262;DHT22;63859;51.064;4.580;2023-08-17T11:15:42;21.40;99.90
75262;DHT22;63859;51.064;4.580;2023-08-17T11:18:11;21.40;99.90
75262;DHT22;63859;51.064;4.580;2023-08-17T11:20:39;21.30;99.90
75262;DHT22;63859;51.064;4.580;2023-08-17T11:23:09;21.30;99.90
75262;DHT22;63859;51.064;4.580;2023-08-17T11:25:37;21.30;99.90
75262;DHT22;63859;51.064;4.580;2023-08-17T11:28:03;21.20;99.90
75262;DHT22;63859;51.064;4.580;2023-08-17T11:30:31;21.20;99.90
75262;DHT22;63859;51.064;4.580;2023-08-17T11:32:59;21.20;99.90
75262;DHT22;63859;51.064;4.580;2023-08-17T11:35:25;21.20;99.90
75262;DHT22;63859;51.064;4.580;2023-08-17T11:37:51;21.20;99.90
75262;DHT22;63859;51.064;4.580;2023-08-17T11:40:17;21.30;99.90
75262;DHT22;63859;51.064;4.580;2023-08-17T11:42:44;21.30;99.90
75262;DHT22;63859;51.064;4.580;2023-08-17T11:45:10;21.30;99.90
75262;DHT22;63859;51.064;4.580;2023-08-17T11:47:38;21.30;99.90
75262;DHT22;63859;51.064;4.580;2023-08-17T11:50:05;21.20;99.90
75262;DHT22;63859;51.064;4.580;2023-08-17T11:52:31;21.30;99.90
75262;DHT22;63859;51.064;4.580;2023-08-17T11:54:58;21.30;99.90
75262;DHT22;63859;51.064;4.580;2023-08-17T11:57:25;21.30;99.90
75262;DHT22;63859;51.064;4.580;2023-08-17T11:59:55;21.30;99.90
75262;DHT22;63859;51.064;4.580;2023-08-17T12:02:23;21.40;99.90
75262;DHT22;63859;51.064;4.580;2023-08-17T12:04:49;21.50;99.90
75262;DHT22;63859;51.064;4.580;2023-08-17T12:07:15;21.50;99.90
75262;DHT22;63859;51.064;4.580;2023-08-17T12:09:43;21.60;99.90
75262;DHT22;63859;51.064;4.580;2023-08-17T12:12:10;21.60;99.90
75262;DHT22;63859;51.064;4.580;2023-08-17T12:14:37;21.70;99.90
75262;DHT22;63859;51.064;4.580;2023-08-17T12:17:06;21.80;99.90
75262;DHT22;63859;51.064;4.580;2023-08-17T12:19:32;21.70;99.90
75262;DHT22;63859;51.064;4.580;2023-08-17T12:21:57;21.80;99.90
75262;DHT22;63859;51.064;4.580;2023-08-17T12:24:26;21.90;99.90
75262;DHT22;63859;51.064;4.580;2023-08-17T12:26:52;22.00;99.90
75262;DHT22;63859;51.064;4.580;2023-08-17T12:29:22;22.20;99.90
75262;DHT22;63859;51.064;4.580;2023-08-17T12:31:48;22.30;99.90
75262;DHT22;63859;51.064;4.580;2023-08-17T12:34:13;22.50;99.90
75262;DHT22;63859;51.064;4.580;2023-08-17T12:36:40;22.60;99.90
75262;DHT22;63859;51.064;4.580;2023-08-17T12:39:08;23.00;99.90
75262;DHT22;63859;51.064;4.580;2023-08-17T12:41:33;23.30;99.90
75262;DHT22;63859;51.064;4.580;2023-08-17T12:43:59;23.30;99.90
75262;DHT22;63859;51.064;4.580;2023-08-17T12:46:26;23.30;99.90
75262;DHT22;63859;51.064;4.580;2023-08-17T12:48:52;23.20;99.90
75262;DHT22;63859;51.064;4.580;2023-08-17T12:51:17;23.10;99.90
75262;DHT22;63859;51.064;4.580;2023-08-17T12:53:43;23.10;99.90
75262;DHT22;63859;51.064;4.580;2023-08-17T12:56:09;23.00;99.90
75262;DHT22;63859;51.064;4.580;2023-08-17T12:58:34;22.90;99.90
75262;DHT22;63859;51.064;4.580;2023-08-17T13:01:01;22.90;99.90
75262;DHT22;63859;51.064;4.580;2023-08-17T13:03:26;23.00;99.90
75262;DHT22;63859;51.064;4.580;2023-08-17T13:05:52;23.00;99.90
75262;DHT22;63859;51.064;4.580;2023-08-17T13:08:18;23.00;99.90
75262;DHT22;63859;51.064;4.580;2023-08-17T13:10:43;23.00;99.90
75262;DHT22;63859;51.064;4.580;2023-08-17T13:13:09;23.00;99.90
75262;DHT22;63859;51.064;4.580;2023-08-17T13:15:36;23.00;99.90
75262;DHT22;63859;51.064;4.580;2023-08-17T13:18:02;23.00;99.90
75262;DHT22;63859;51.064;4.580;2023-08-17T13:20:28;23.00;99.90
75262;DHT22;63859;51.064;4.580;2023-08-17T13:22:54;23.00;99.90
75262;DHT22;63859;51.064;4.580;2023-08-17T13:25:19;23.00;99.90
75262;DHT22;63859;51.064;4.580;2023-08-17T13:27:45;23.00;99.90
75262;DHT22;63859;51.064;4.580;2023-08-17T13:30:11;22.90;99.90
75262;DHT22;63859;51.064;4.580;2023-08-17T13:32:37;22.80;99.90
75262;DHT22;63859;51.064;4.580;2023-08-17T13:35:03;22.80;99.90
75262;DHT22;63859;51.064;4.580;2023-08-17T13:37:29;22.70;99.90
75262;DHT22;63859;51.064;4.580;2023-08-17T13:39:54;22.70;99.90
75262;DHT22;63859;51.064;4.580;2023-08-17T13:42:20;22.60;99.90
75262;DHT22;63859;51.064;4.580;2023-08-17T13:44:46;22.70;99.90
75262;DHT22;63859;51.064;4.580;2023-08-17T13:47:12;22.70;99.90
75262;DHT22;63859;51.064;4.580;2023-08-17T13:49:38;22.80;99.90
75262;DHT22;63859;51.064;4.580;2023-08-17T13:52:04;22.80;99.90
75262;DHT22;63859;51.064;4.580;2023-08-17T13:54:30;22.80;99.90
75262;DHT22;63859;51.064;4.580;2023-08-17T13:56:55;22.80;99.90
75262;DHT22;63859;51.064;4.580;2023-08-17T13:59:22;22.90;99.90
75262;DHT22;63859;51.064;4.580;2023-08-17T14:01:47;22.90;99.90
75262;DHT22;63859;51.064;4.580;2023-08-17T14:04:13;22.80;99.90
75262;DHT22;63859;51.064;4.580;2023-08-17T14:06:40;22.80;99.90
75262;DHT22;63859;51.064;4.580;2023-08-17T14:09:06;22.90;99.90
75262;DHT22;63859;51.064;4.580;2023-08-17T14:11:32;22.90;99.90
75262;DHT22;63859;51.064;4.580;2023-08-17T14:13:58;23.10;99.90
75262;DHT22;63859;51.064;4.580;2023-08-17T14:16:23;23.30;99.90
75262;DHT22;63859;51.064;4.580;2023-08-17T14:18:49;23.80;99.90
75262;DHT22;63859;51.064;4.580;2023-08-17T14:21:15;24.20;99.90
75262;DHT22;63859;51.064;4.580;2023-08-17T14:23:41;24.30;99.90
75262;DHT22;63859;51.064;4.580;2023-08-17T14:26:07;24.30;99.90
75262;DHT22;63859;51.064;4.580;2023-08-17T14:28:32;24.30;99.90
75262;DHT22;63859;51.064;4.580;2023-08-17T14:30:58;24.10;99.90
75262;DHT22;63859;51.064;4.580;2023-08-17T14:33:24;24.00;99.90
75262;DHT22;63859;51.064;4.580;2023-08-17T14:35:50;23.90;99.90
75262;DHT22;63859;51.064;4.580;2023-08-17T14:38:16;23.90;99.90
75262;DHT22;63859;51.064;4.580;2023-08-17T14:40:47;23.70;99.90
75262;DHT22;63859;51.064;4.580;2023-08-17T14:43:12;23.50;99.90
75262;DHT22;63859;51.064;4.580;2023-08-17T14:45:42;23.40;99.90
75262;DHT22;63859;51.064;4.580;2023-08-17T14:48:08;23.30;99.90
75262;DHT22;63859;51.064;4.580;2023-08-17T14:50:34;23.20;99.90
75262;DHT22;63859;51.064;4.580;2023-08-17T14:53:01;23.20;99.90
75262;DHT22;63859;51.064;4.580;2023-08-17T14:55:32;23.00;99.90
75262;DHT22;63859;51.064;4.580;2023-08-17T14:57:58;23.00;99.90
75262;DHT22;63859;51.064;4.580;2023-08-17T15:00:24;22.90;99.90
75262;DHT22;63859;51.064;4.580;2023-08-17T15:02:51;22.90;99.90
75262;DHT22;63859;51.064;4.580;2023-08-17T15:05:17;22.80;99.90
75262;DHT22;63859;51.064;4.580;2023-08-17T15:07:42;22.70;99.90
75262;DHT22;63859;51.064;4.580;2023-08-17T15:10:08;22.70;99.90
75262;DHT22;63859;51.064;4.580;2023-08-17T15:12:34;22.70;99.90
75262;DHT22;63859;51.064;4.580;2023-08-17T15:15:00;22.70;99.90
75262;DHT22;63859;51.064;4.580;2023-08-17T15:17:26;22.60;99.90
75262;DHT22;63859;51.064;4.580;2023-08-17T15:19:52;22.60;99.90
75262;DHT22;63859;51.064;4.580;2023-08-17T15:22:18;22.60;99.90
75262;DHT22;63859;51.064;4.580;2023-08-17T15:24:44;22.60;99.90
75262;DHT22;63859;51.064;4.580;2023-08-17T15:27:10;22.50;99.90
75262;DHT22;63859;51.064;4.580;2023-08-17T15:29:35;22.50;99.90
75262;DHT22;63859;51.064;4.580;2023-08-17T15:32:01;22.50;99.90
75262;DHT22;63859;51.064;4.580;2023-08-17T15:34:27;22.40;99.90
75262;DHT22;63859;51.064;4.580;2023-08-17T15:36:52;22.40;99.90
75262;DHT22;63859;51.064;4.580;2023-08-17T15:39:18;22.40;99.90